Huvudsida
METAR-TAF:

METAR-TAF

Flygplatser :

Röros, Norge

Røros flygplats

latitud: 62-35N, longitud: 011-21E, höjd: 626 m

Aktuellt väderrapport

Denna rapport gjordes för 13 minuter sedan, klockan 14:50 UTC
Vind 20 kt från väst/nordväst
Temperatur 5°C
Fuktighet 65%
Tryck 1011 hPa
Sikt 10 km eller mer

METAR: ENRO 211450Z AUTO 29020KT 9999NDV FEW045/// 05/M01 Q1011

Tid: 17:03 (15:03 UTC)

Väderprognos

Denna rapport gjordes för 25 timmar och 34 minuter sedan, klockan 13:29 UTC
Prognos gäller från 20 kl. 13 UTC till 20 kl. 18 UTC
Vind 8 kt från nord/nordväst
Sikt 10 km eller mer
Få moln på en höjd av 1400 ft
Brutna moln på en höjd av 3000 ft
Temporärt
från 20 kl. 14 UTC till 20 kl. 17 UTC
Brutna moln på en höjd av 1400 ft
regn

TAF: ENRO 201329Z 2013/2018 34008KT 9999 FEW014 BKN030 TEMPO 2014/2017 RA BKN014

Aktuella väderrapporter och prognoser från 4000 flygplatser (METAR- och TAF-rapporter).

De tillgängliga stationerna syns som gula och röda prickar på kartan.

För musen över prickarna för att se namnen på stationerna.

Klicka sedan för att få väderrapporter och prognoser.

För att ändra kartan: Klicka på de gröna knapparna med ett svart kors på för att zooma in; den gröna knappen med ett streck på för att zooma ut; eller på de gröna pilarna för angränsande kartor.


METAR-TAF: